sensor_id;sensor_type;location;lat;lon;timestamp;P1;durP1;ratioP1;P2;durP2;ratioP2
10142;SDS011;5112;54.088;13.446;2022-07-24T00:01:53;2.97;;;2.67;;
10142;SDS011;5112;54.088;13.446;2022-07-24T00:11:55;3.50;;;2.20;;
10142;SDS011;5112;54.088;13.446;2022-07-24T00:21:59;4.60;;;2.70;;
10142;SDS011;5112;54.088;13.446;2022-07-24T00:32:02;4.13;;;2.97;;
10142;SDS011;5112;54.088;13.446;2022-07-24T00:42:06;3.40;;;2.30;;
10142;SDS011;5112;54.088;13.446;2022-07-24T00:52:07;4.77;;;2.60;;
10142;SDS011;5112;54.088;13.446;2022-07-24T01:02:11;4.03;;;2.47;;
10142;SDS011;5112;54.088;13.446;2022-07-24T01:12:12;3.40;;;2.70;;
10142;SDS011;5112;54.088;13.446;2022-07-24T01:22:16;2.90;;;2.30;;
10142;SDS011;5112;54.088;13.446;2022-07-24T01:32:17;1.93;;;1.80;;
10142;SDS011;5112;54.088;13.446;2022-07-24T01:42:20;2.37;;;2.00;;
10142;SDS011;5112;54.088;13.446;2022-07-24T01:52:25;3.57;;;2.20;;
10142;SDS011;5112;54.088;13.446;2022-07-24T02:02:28;3.67;;;2.10;;
10142;SDS011;5112;54.088;13.446;2022-07-24T02:12:30;2.90;;;2.03;;
10142;SDS011;5112;54.088;13.446;2022-07-24T02:22:33;2.63;;;1.80;;
10142;SDS011;5112;54.088;13.446;2022-07-24T02:32:35;2.97;;;2.23;;
10142;SDS011;5112;54.088;13.446;2022-07-24T02:42:38;2.53;;;2.33;;
10142;SDS011;5112;54.088;13.446;2022-07-24T02:52:40;3.53;;;2.50;;
10142;SDS011;5112;54.088;13.446;2022-07-24T03:02:43;3.13;;;2.20;;
10142;SDS011;5112;54.088;13.446;2022-07-24T03:12:45;3.17;;;2.17;;
10142;SDS011;5112;54.088;13.446;2022-07-24T03:22:48;7.23;;;2.33;;
10142;SDS011;5112;54.088;13.446;2022-07-24T03:32:51;2.57;;;2.33;;
10142;SDS011;5112;54.088;13.446;2022-07-24T03:42:54;3.43;;;2.60;;
10142;SDS011;5112;54.088;13.446;2022-07-24T03:52:56;3.87;;;2.27;;
10142;SDS011;5112;54.088;13.446;2022-07-24T04:02:59;3.60;;;2.43;;
10142;SDS011;5112;54.088;13.446;2022-07-24T04:13:00;2.97;;;2.00;;
10142;SDS011;5112;54.088;13.446;2022-07-24T04:23:03;4.27;;;2.40;;
10142;SDS011;5112;54.088;13.446;2022-07-24T04:33:05;2.93;;;1.80;;
10142;SDS011;5112;54.088;13.446;2022-07-24T04:43:09;2.33;;;1.90;;
10142;SDS011;5112;54.088;13.446;2022-07-24T04:53:10;2.53;;;1.97;;
10142;SDS011;5112;54.088;13.446;2022-07-24T05:03:13;2.67;;;1.83;;
10142;SDS011;5112;54.088;13.446;2022-07-24T05:13:15;2.40;;;2.10;;
10142;SDS011;5112;54.088;13.446;2022-07-24T05:23:18;2.37;;;2.00;;
10142;SDS011;5112;54.088;13.446;2022-07-24T05:33:20;2.23;;;2.00;;
10142;SDS011;5112;54.088;13.446;2022-07-24T05:43:23;4.83;;;2.40;;
10142;SDS011;5112;54.088;13.446;2022-07-24T05:53:25;2.90;;;2.20;;
10142;SDS011;5112;54.088;13.446;2022-07-24T06:03:28;3.43;;;2.50;;
10142;SDS011;5112;54.088;13.446;2022-07-24T06:13:29;3.13;;;2.30;;
10142;SDS011;5112;54.088;13.446;2022-07-24T06:23:33;3.07;;;2.27;;
10142;SDS011;5112;54.088;13.446;2022-07-24T06:33:34;2.57;;;2.27;;
10142;SDS011;5112;54.088;13.446;2022-07-24T06:43:37;2.40;;;2.20;;
10142;SDS011;5112;54.088;13.446;2022-07-24T06:53:39;2.40;;;2.20;;
10142;SDS011;5112;54.088;13.446;2022-07-24T07:03:45;2.43;;;2.23;;
10142;SDS011;5112;54.088;13.446;2022-07-24T07:13:46;2.23;;;1.97;;
10142;SDS011;5112;54.088;13.446;2022-07-24T07:23:52;2.73;;;1.90;;
10142;SDS011;5112;54.088;13.446;2022-07-24T07:33:54;4.67;;;2.30;;
10142;SDS011;5112;54.088;13.446;2022-07-24T07:43:57;2.40;;;2.20;;
10142;SDS011;5112;54.088;13.446;2022-07-24T07:53:59;3.73;;;2.23;;
10142;SDS011;5112;54.088;13.446;2022-07-24T08:04:02;3.23;;;1.93;;
10142;SDS011;5112;54.088;13.446;2022-07-24T08:14:04;3.93;;;2.07;;
10142;SDS011;5112;54.088;13.446;2022-07-24T08:24:08;3.57;;;2.10;;
10142;SDS011;5112;54.088;13.446;2022-07-24T08:34:10;5.27;;;1.90;;
10142;SDS011;5112;54.088;13.446;2022-07-24T08:44:13;2.30;;;1.87;;
10142;SDS011;5112;54.088;13.446;2022-07-24T08:54:14;2.53;;;1.97;;
10142;SDS011;5112;54.088;13.446;2022-07-24T09:04:36;1.97;;;1.80;;
10142;SDS011;5112;54.088;13.446;2022-07-24T09:14:39;2.57;;;1.90;;
10142;SDS011;5112;54.088;13.446;2022-07-24T09:24:44;2.40;;;1.70;;
10142;SDS011;5112;54.088;13.446;2022-07-24T09:34:46;1.67;;;1.53;;
10142;SDS011;5112;54.088;13.446;2022-07-24T09:44:53;1.83;;;1.60;;
10142;SDS011;5112;54.088;13.446;2022-07-24T09:54:58;1.67;;;1.43;;
10142;SDS011;5112;54.088;13.446;2022-07-24T10:05:03;1.77;;;1.67;;
10142;SDS011;5112;54.088;13.446;2022-07-24T10:15:07;1.80;;;1.70;;
10142;SDS011;5112;54.088;13.446;2022-07-24T10:25:11;1.70;;;1.60;;
10142;SDS011;5112;54.088;13.446;2022-07-24T10:35:21;3.17;;;2.87;;
10142;SDS011;5112;54.088;13.446;2022-07-24T10:45:26;4.07;;;3.60;;
10142;SDS011;5112;54.088;13.446;2022-07-24T10:55:31;1.70;;;1.60;;
10142;SDS011;5112;54.088;13.446;2022-07-24T11:05:36;1.97;;;1.60;;
10142;SDS011;5112;54.088;13.446;2022-07-24T11:36:43;2.10;;;1.50;;
10142;SDS011;5112;54.088;13.446;2022-07-24T11:46:49;2.00;;;1.90;;
10142;SDS011;5112;54.088;13.446;2022-07-24T11:56:51;1.80;;;1.70;;
10142;SDS011;5112;54.088;13.446;2022-07-24T12:06:55;2.10;;;1.90;;
10142;SDS011;5112;54.088;13.446;2022-07-24T12:16:57;1.80;;;1.70;;
10142;SDS011;5112;54.088;13.446;2022-07-24T12:27:00;1.77;;;1.67;;
10142;SDS011;5112;54.088;13.446;2022-07-24T12:37:13;2.80;;;1.70;;
10142;SDS011;5112;54.088;13.446;2022-07-24T12:47:16;1.60;;;1.50;;
10142;SDS011;5112;54.088;13.446;2022-07-24T12:57:19;4.50;;;1.83;;
10142;SDS011;5112;54.088;13.446;2022-07-24T13:07:24;2.83;;;2.00;;
10142;SDS011;5112;54.088;13.446;2022-07-24T13:17:27;3.30;;;2.13;;
10142;SDS011;5112;54.088;13.446;2022-07-24T13:27:30;1.77;;;1.60;;
10142;SDS011;5112;54.088;13.446;2022-07-24T13:37:32;2.73;;;1.80;;
10142;SDS011;5112;54.088;13.446;2022-07-24T13:47:35;2.30;;;2.20;;
10142;SDS011;5112;54.088;13.446;2022-07-24T13:57:37;2.70;;;2.47;;
10142;SDS011;5112;54.088;13.446;2022-07-24T14:07:40;2.13;;;2.03;;
10142;SDS011;5112;54.088;13.446;2022-07-24T14:17:43;4.60;;;2.67;;
10142;SDS011;5112;54.088;13.446;2022-07-24T14:27:46;2.17;;;2.03;;
10142;SDS011;5112;54.088;13.446;2022-07-24T14:37:48;2.67;;;2.00;;
10142;SDS011;5112;54.088;13.446;2022-07-24T14:47:51;2.23;;;2.13;;
10142;SDS011;5112;54.088;13.446;2022-07-24T14:57:53;4.47;;;2.03;;
10142;SDS011;5112;54.088;13.446;2022-07-24T15:07:56;2.40;;;2.20;;
10142;SDS011;5112;54.088;13.446;2022-07-24T15:17:57;2.40;;;2.20;;
10142;SDS011;5112;54.088;13.446;2022-07-24T15:28:00;2.60;;;2.40;;
10142;SDS011;5112;54.088;13.446;2022-07-24T15:38:02;2.87;;;2.40;;
10142;SDS011;5112;54.088;13.446;2022-07-24T15:48:05;2.40;;;2.20;;
10142;SDS011;5112;54.088;13.446;2022-07-24T15:58:07;2.40;;;2.30;;
10142;SDS011;5112;54.088;13.446;2022-07-24T16:08:11;2.50;;;2.40;;
10142;SDS011;5112;54.088;13.446;2022-07-24T16:18:12;2.27;;;2.13;;
10142;SDS011;5112;54.088;13.446;2022-07-24T16:28:16;2.13;;;2.00;;
10142;SDS011;5112;54.088;13.446;2022-07-24T16:38:17;2.70;;;2.50;;
10142;SDS011;5112;54.088;13.446;2022-07-24T16:48:20;3.03;;;2.10;;
10142;SDS011;5112;54.088;13.446;2022-07-24T16:58:22;2.90;;;2.70;;
10142;SDS011;5112;54.088;13.446;2022-07-24T17:08:25;2.70;;;2.20;;
10142;SDS011;5112;54.088;13.446;2022-07-24T17:18:27;2.67;;;2.47;;
10142;SDS011;5112;54.088;13.446;2022-07-24T17:28:30;8.20;;;2.20;;
10142;SDS011;5112;54.088;13.446;2022-07-24T17:38:32;2.50;;;2.30;;
10142;SDS011;5112;54.088;13.446;2022-07-24T17:48:35;2.90;;;2.17;;
10142;SDS011;5112;54.088;13.446;2022-07-24T17:58:37;4.30;;;2.30;;
10142;SDS011;5112;54.088;13.446;2022-07-24T18:08:40;2.30;;;2.20;;
10142;SDS011;5112;54.088;13.446;2022-07-24T18:18:43;3.03;;;2.63;;
10142;SDS011;5112;54.088;13.446;2022-07-24T18:28:46;3.03;;;2.63;;
10142;SDS011;5112;54.088;13.446;2022-07-24T18:38:48;4.23;;;2.50;;
10142;SDS011;5112;54.088;13.446;2022-07-24T18:48:52;2.93;;;2.63;;
10142;SDS011;5112;54.088;13.446;2022-07-24T18:58:53;3.77;;;2.57;;
10142;SDS011;5112;54.088;13.446;2022-07-24T19:08:56;3.30;;;2.80;;
10142;SDS011;5112;54.088;13.446;2022-07-24T19:18:58;4.83;;;2.90;;
10142;SDS011;5112;54.088;13.446;2022-07-24T19:29:01;3.97;;;3.13;;
10142;SDS011;5112;54.088;13.446;2022-07-24T19:39:03;3.33;;;3.00;;
10142;SDS011;5112;54.088;13.446;2022-07-24T19:49:06;3.38;;;2.95;;
10142;SDS011;5112;54.088;13.446;2022-07-24T19:59:08;4.55;;;3.33;;
10142;SDS011;5112;54.088;13.446;2022-07-24T20:09:12;3.63;;;3.30;;
10142;SDS011;5112;54.088;13.446;2022-07-24T20:19:13;3.92;;;3.55;;
10142;SDS011;5112;54.088;13.446;2022-07-24T20:29:17;3.47;;;3.17;;
10142;SDS011;5112;54.088;13.446;2022-07-24T20:39:21;4.93;;;3.33;;
10142;SDS011;5112;54.088;13.446;2022-07-24T20:49:24;3.10;;;2.90;;
10142;SDS011;5112;54.088;13.446;2022-07-24T20:59:26;3.00;;;2.70;;
10142;SDS011;5112;54.088;13.446;2022-07-24T21:09:29;3.33;;;2.67;;
10142;SDS011;5112;54.088;13.446;2022-07-24T21:19:31;2.73;;;2.53;;
10142;SDS011;5112;54.088;13.446;2022-07-24T21:29:34;3.10;;;2.83;;
10142;SDS011;5112;54.088;13.446;2022-07-24T21:39:36;3.43;;;2.80;;
10142;SDS011;5112;54.088;13.446;2022-07-24T21:49:39;3.43;;;3.00;;
10142;SDS011;5112;54.088;13.446;2022-07-24T21:59:40;3.50;;;3.07;;
10142;SDS011;5112;54.088;13.446;2022-07-24T22:09:43;3.30;;;3.00;;
10142;SDS011;5112;54.088;13.446;2022-07-24T22:19:45;3.40;;;3.20;;
10142;SDS011;5112;54.088;13.446;2022-07-24T22:29:48;3.40;;;3.13;;
10142;SDS011;5112;54.088;13.446;2022-07-24T22:39:50;3.70;;;3.30;;
10142;SDS011;5112;54.088;13.446;2022-07-24T22:49:54;3.50;;;3.20;;
10142;SDS011;5112;54.088;13.446;2022-07-24T22:59:56;3.40;;;3.10;;
10142;SDS011;5112;54.088;13.446;2022-07-24T23:10:00;4.13;;;3.23;;
10142;SDS011;5112;54.088;13.446;2022-07-24T23:20:03;3.50;;;3.20;;
10142;SDS011;5112;54.088;13.446;2022-07-24T23:30:08;4.63;;;3.23;;
10142;SDS011;5112;54.088;13.446;2022-07-24T23:40:10;4.53;;;3.40;;
10142;SDS011;5112;54.088;13.446;2022-07-24T23:50:14;3.30;;;3.10;;
